This is the latest recevied weather packets stored in our database for station/object WA4OPQ-1. If no packets are shown the sender has not sent any weather packets the latest 10 day(s).
| Time | Temp. | Humidity | Pressure | Rain* | Wind** | Luminosity | Snow |
|---|---|---|---|---|---|---|---|
| 1787519664 | 28.89° C | 68% | 1012.4 hPa | 0 mm | 0 m/s | 187 W/m² | - |
| 1787519164 | 28.89° C | 62% | 1012.4 hPa | 0 mm | 0 m/s | 356 W/m² | - |
| 1787518564 | 28.89° C | 66% | 1012.8 hPa | 0 mm | 0.45 m/s, 326° | 359 W/m² | - |
| 1787518064 | 29.44° C | 64% | 1012.5 hPa | 0 mm | 0 m/s | 254 W/m² | - |
| 1787517529 | 30° C | 62% | 1012.6 hPa | 0 mm | 0 m/s | 431 W/m² | - |
| 1787517039 | 30° C | 64% | 1012.7 hPa | 0 mm | 0 m/s | 476 W/m² | - |
| 1787516524 | 28.89° C | 60% | 1012.7 hPa | 0 mm | 0 m/s | 495 W/m² | - |
| 1787515929 | 30.56° C | 61% | 1012.7 hPa | 0 mm | 0 m/s | 215 W/m² | - |
| 1787515379 | 30° C | 60% | 1012.9 hPa | 0 mm | 0.45 m/s, 305° | 595 W/m² | - |
| 1787514884 | 30.56° C | 60% | 1013 hPa | 0 mm | 0 m/s | 626 W/m² | - |
| 1787514379 | 30.56° C | 64% | 1012.9 hPa | 0 mm | 0 m/s | 612 W/m² | - |
| 1787513854 | 30° C | 57% | 1013 hPa | 0 mm | 0 m/s | 645 W/m² | - |
| 1787513294 | 29.44° C | 62% | 1013.1 hPa | 0 mm | 0 m/s | 569 W/m² | - |
| 1787512694 | 28.89° C | 66% | 1013.4 hPa | 0 mm | 0 m/s | 686 W/m² | - |
| 1787512124 | 30° C | 61% | 1013.2 hPa | 0 mm | 0.45 m/s, 323° | 666 W/m² | - |
| 1787511574 | 30° C | 58% | 1013.2 hPa | 0 mm | 0 m/s | 677 W/m² | - |
| 1787511024 | 28.89° C | 63% | 1013.6 hPa | 0 mm | 0 m/s | 629 W/m² | - |
| 1787510489 | 29.44° C | 64% | 1013.6 hPa | 0 mm | 0 m/s | 703 W/m² | - |
| 1787509964 | 28.89° C | 69% | 1013.9 hPa | 0 mm | 0 m/s | 163 W/m² | - |
| 1787509379 | 30° C | 67% | 1013.7 hPa | 0 mm | 0 m/s | 702 W/m² | - |
| 1787508834 | 29.44° C | 61% | 1013.9 hPa | 0 mm | 0.45 m/s, 339° | 667 W/m² | - |
| 1787508289 | 30° C | 56% | 1013.8 hPa | 0 mm | 0.45 m/s, 326° | 658 W/m² | - |
| 1787507709 | 29.44° C | 61% | 1014 hPa | 0 mm | 0.89 m/s, 339° | 717 W/m² | - |
| 1787507139 | 30° C | 60% | 1014 hPa | 0 mm | 0 m/s | 540 W/m² | - |
| 1787506614 | 29.44° C | 62% | 1014.1 hPa | 0 mm | 0.89 m/s, 326° | 697 W/m² | - |
* Rain latest hour (hover to see other rain measurements)
** Current wind speed in m/s (hover to see current wind gust speed)